createdAt,value
2017-05-11T00:07:46.864Z,995.2
2017-05-11T00:17:57.784Z,995.2
2017-05-11T00:28:08.690Z,995
2017-05-11T00:38:19.702Z,994.9
2017-05-11T00:48:30.543Z,994.8
2017-05-11T00:58:41.494Z,994.6
2017-05-11T01:08:52.497Z,994.4
2017-05-11T01:19:03.523Z,994.4
2017-05-11T01:29:14.666Z,994.2
2017-05-11T01:39:25.835Z,994.1
2017-05-11T01:49:36.996Z,993.9
2017-05-11T01:59:48.140Z,993.8
2017-05-11T02:09:59.348Z,993.6
2017-05-11T02:20:10.523Z,993.5
2017-05-11T02:30:21.676Z,993.4
2017-05-11T02:40:32.947Z,993.2
2017-05-11T02:50:44.192Z,993.2
2017-05-11T03:00:55.375Z,993.1
2017-05-11T03:11:06.548Z,992.9
2017-05-11T03:21:17.745Z,992.7
2017-05-11T03:31:29.024Z,992.7
2017-05-11T03:41:40.394Z,992.7
2017-05-11T03:51:51.625Z,992.5
2017-05-11T04:02:02.960Z,992.4
2017-05-11T04:12:14.268Z,992.5
2017-05-11T04:22:25.367Z,992.3
2017-05-11T04:32:36.338Z,992.2
2017-05-11T04:42:47.112Z,992.2
2017-05-11T04:52:57.751Z,992.1
2017-05-11T05:03:08.270Z,992.1
2017-05-11T05:13:18.612Z,992
2017-05-11T05:23:28.825Z,991.9
2017-05-11T05:33:38.874Z,991.9
2017-05-11T05:43:48.836Z,992
2017-05-11T05:53:58.689Z,991.9
2017-05-11T06:04:08.450Z,991.9
2017-05-11T06:14:18.079Z,991.8
2017-05-11T06:24:27.649Z,991.7
2017-05-11T06:34:37.163Z,991.7
2017-05-11T06:44:46.571Z,991.7
2017-05-11T06:54:55.826Z,991.9
2017-05-11T07:05:04.954Z,991.7
2017-05-11T07:15:13.982Z,991.7
2017-05-11T07:25:22.905Z,991.7
2017-05-11T07:35:31.793Z,991.5
2017-05-11T07:45:40.655Z,991.4
2017-05-11T07:55:49.490Z,991.3
2017-05-11T08:05:58.202Z,991.2
2017-05-11T08:16:06.738Z,991.1
2017-05-11T08:26:15.177Z,991.2
2017-05-11T08:36:23.533Z,991.1
2017-05-11T08:46:31.808Z,991
2017-05-11T08:56:39.998Z,991
2017-05-11T09:06:48.005Z,990.8
2017-05-11T09:16:55.994Z,990.8
2017-05-11T09:27:03.923Z,990.8
2017-05-11T09:37:11.748Z,990.8
2017-05-11T09:47:19.589Z,990.7
2017-05-11T09:57:27.428Z,990.5
2017-05-11T10:07:35.165Z,990.4
2017-05-11T10:17:42.841Z,990.3
2017-05-11T10:27:50.539Z,990.2
2017-05-11T10:37:58.183Z,990.3
2017-05-11T10:48:05.831Z,990.5
2017-05-11T10:58:13.507Z,990.3
2017-05-11T11:08:21.325Z,990.2
2017-05-11T11:18:28.904Z,989.9
2017-05-11T11:28:36.564Z,990
2017-05-11T11:38:44.149Z,989.9
2017-05-11T11:48:51.664Z,989.5
2017-05-11T11:58:59.236Z,989.3
2017-05-11T12:09:06.673Z,989
2017-05-11T12:19:14.105Z,988.9
2017-05-11T12:29:21.409Z,988.6
2017-05-11T12:39:28.796Z,988.6
2017-05-11T12:49:36.313Z,988.5
2017-05-11T12:59:43.955Z,988.3
2017-05-11T13:09:51.589Z,988.3
2017-05-11T13:19:59.126Z,988.2
2017-05-11T13:30:06.775Z,988.2
2017-05-11T13:40:14.485Z,988.1
2017-05-11T13:50:22.161Z,988.1
2017-05-11T14:00:29.793Z,988.1
2017-05-11T14:10:37.444Z,988.1
2017-05-11T14:20:45.166Z,988.1
2017-05-11T14:30:52.954Z,987.9
2017-05-11T14:41:00.838Z,988
2017-05-11T14:51:08.712Z,987.7
2017-05-11T15:01:16.348Z,987.8
2017-05-11T15:11:24.006Z,987.8
2017-05-11T15:21:31.926Z,987.7
2017-05-11T15:31:39.967Z,987.7
2017-05-11T15:41:48.087Z,987.7
2017-05-11T15:51:56.234Z,987.5
2017-05-11T16:02:04.428Z,987.6
2017-05-11T16:12:12.616Z,987.4
2017-05-11T16:22:20.835Z,987.3
2017-05-11T16:32:29.047Z,987.2
2017-05-11T16:42:37.194Z,987.1
2017-05-11T16:52:45.386Z,987.2
2017-05-11T17:02:53.457Z,987
2017-05-11T17:13:01.426Z,987
2017-05-11T17:23:09.372Z,986.9
2017-05-11T17:33:17.634Z,987
2017-05-11T17:43:26.034Z,987.1
2017-05-11T17:53:34.459Z,987
2017-05-11T18:03:43.002Z,986.9
2017-05-11T18:13:51.610Z,987
2017-05-11T18:24:00.301Z,987
2017-05-11T18:34:09.022Z,987
2017-05-11T18:44:17.910Z,987.3
2017-05-11T18:54:26.951Z,987.2
2017-05-11T19:04:36.116Z,987.5
2017-05-11T19:10:29.814Z,987.5
2017-05-11T19:10:56.973Z,987.4
2017-05-11T19:12:46.357Z,987.4
2017-05-11T19:13:40.824Z,987.4
2017-05-11T19:20:01.539Z,987.4
2017-05-11T19:21:47.043Z,987.4
2017-05-11T19:22:02.878Z,987.4
2017-05-11T19:22:18.298Z,987.4
2017-05-11T19:22:49.618Z,987.4
2017-05-11T19:23:07.603Z,987.3
2017-05-11T19:23:22.195Z,987.5
2017-05-11T19:23:38.374Z,987.4
2017-05-11T19:24:43.490Z,987.4
2017-05-11T19:34:52.554Z,987.5
2017-05-11T19:45:01.662Z,987.6
2017-05-11T19:55:10.830Z,987.6
2017-05-11T20:05:19.981Z,987.7
2017-05-11T20:15:29.121Z,987.8
2017-05-11T20:25:38.306Z,987.9
2017-05-11T20:35:47.431Z,988
2017-05-11T20:45:56.572Z,988
2017-05-11T20:56:05.720Z,988.2
2017-05-11T21:06:14.953Z,988.2
2017-05-11T21:16:24.119Z,988.2
2017-05-11T21:26:33.333Z,988.3
2017-05-11T21:36:42.550Z,988.3
2017-05-11T21:46:51.779Z,988.4
2017-05-11T21:57:01.049Z,988.5
2017-05-11T22:07:10.331Z,988.5
2017-05-11T22:17:19.668Z,988.6
2017-05-11T22:27:29.058Z,988.7
2017-05-11T22:37:38.511Z,988.8
2017-05-11T22:47:47.974Z,989
2017-05-11T22:57:57.448Z,989
2017-05-11T23:08:06.902Z,989.2
2017-05-11T23:18:16.451Z,989.2
2017-05-11T23:28:26.036Z,989.3
2017-05-11T23:38:35.611Z,989.3
2017-05-11T23:48:45.195Z,989.4
2017-05-11T23:58:54.728Z,989.3
